createdAt,value
2022-08-17T00:01:27.173Z,18.00
2022-08-17T00:03:54.687Z,17.90
2022-08-17T00:06:24.939Z,17.90
2022-08-17T00:08:58.028Z,17.80
2022-08-17T00:11:33.533Z,17.80
2022-08-17T00:14:08.184Z,17.80
2022-08-17T00:16:56.199Z,17.80
2022-08-17T00:19:25.457Z,17.80
2022-08-17T00:22:28.751Z,17.70
2022-08-17T00:24:42.901Z,17.70
2022-08-17T00:27:10.567Z,17.70
2022-08-17T00:29:37.329Z,17.70
2022-08-17T00:33:22.893Z,17.60
2022-08-17T00:34:51.121Z,17.60
2022-08-17T00:37:17.801Z,17.60
2022-08-17T00:39:44.460Z,17.50
2022-08-17T00:42:16.656Z,17.50
2022-08-17T00:44:43.254Z,17.40
2022-08-17T00:47:09.912Z,17.40
2022-08-17T00:49:36.529Z,17.40
2022-08-17T00:52:10.871Z,17.40
2022-08-17T00:54:42.311Z,17.40
2022-08-17T00:57:13.827Z,17.40
2022-08-17T01:00:01.599Z,17.40
2022-08-17T01:02:41.736Z,17.40
2022-08-17T01:05:23.565Z,17.40
2022-08-17T01:07:52.429Z,17.30
2022-08-17T01:10:59.361Z,17.30
2022-08-17T01:13:11.154Z,17.20
2022-08-17T01:15:46.073Z,17.20
2022-08-17T01:18:13.585Z,17.10
2022-08-17T01:20:48.592Z,17.10
2022-08-17T01:23:20.572Z,17.20
2022-08-17T01:25:54.513Z,17.20
2022-08-17T01:28:33.316Z,17.20
2022-08-17T01:31:09.722Z,17.10
2022-08-17T01:33:37.094Z,17.10
2022-08-17T01:36:06.813Z,17.10
2022-08-17T01:38:35.358Z,17.00
2022-08-17T01:41:11.918Z,16.90
2022-08-17T01:43:53.809Z,16.90
2022-08-17T01:46:24.862Z,16.90
2022-08-17T01:48:51.581Z,16.90
2022-08-17T01:51:19.728Z,16.90
2022-08-17T01:53:51.757Z,16.90
2022-08-17T01:56:22.817Z,16.90
2022-08-17T01:58:50.056Z,16.80
2022-08-17T02:01:23.167Z,16.80
2022-08-17T02:03:56.244Z,16.70
2022-08-17T02:06:29.586Z,16.60
2022-08-17T02:09:03.245Z,16.60
2022-08-17T02:11:32.692Z,16.60
2022-08-17T02:14:03.753Z,16.60
2022-08-17T02:16:37.601Z,16.60
2022-08-17T02:19:07.430Z,16.60
2022-08-17T02:21:34.946Z,16.60
2022-08-17T02:24:03.067Z,16.60
2022-08-17T02:26:29.947Z,16.60
2022-08-17T02:28:56.719Z,16.60
2022-08-17T02:31:23.376Z,16.60
2022-08-17T02:34:00.342Z,16.70
2022-08-17T02:36:31.085Z,16.70
2022-08-17T02:38:58.516Z,16.70
2022-08-17T02:41:25.329Z,16.70
2022-08-17T02:43:53.145Z,16.70
2022-08-17T02:46:19.839Z,16.70
2022-08-17T02:48:46.918Z,16.70
2022-08-17T02:51:13.937Z,16.70
2022-08-17T02:53:40.733Z,16.60
2022-08-17T02:56:07.423Z,16.60
2022-08-17T02:58:34.806Z,16.50
2022-08-17T03:01:06.508Z,16.50
2022-08-17T03:03:34.087Z,16.50
2022-08-17T03:06:01.130Z,16.50
2022-08-17T03:08:27.778Z,16.40
2022-08-17T03:10:54.402Z,16.50
2022-08-17T03:13:21.054Z,16.50
2022-08-17T03:15:48.621Z,16.50
2022-08-17T03:18:24.167Z,16.50
2022-08-17T03:20:53.284Z,16.50
2022-08-17T03:23:23.853Z,16.60
2022-08-17T03:25:53.341Z,16.60
2022-08-17T03:28:21.657Z,16.70
2022-08-17T03:30:49.063Z,16.80
2022-08-17T03:33:16.141Z,16.80
2022-08-17T03:35:43.222Z,16.90
2022-08-17T03:38:11.586Z,16.90
2022-08-17T03:40:56.437Z,16.90
2022-08-17T03:43:26.580Z,16.90
2022-08-17T03:46:34.203Z,16.80
2022-08-17T03:49:17.302Z,16.70
2022-08-17T03:52:02.645Z,16.60
2022-08-17T03:54:48.048Z,16.60
2022-08-17T03:57:14.774Z,16.50
2022-08-17T03:59:41.618Z,16.40
2022-08-17T04:02:11.334Z,16.30
2022-08-17T04:04:39.157Z,16.40
2022-08-17T04:07:06.246Z,16.30
2022-08-17T04:09:32.977Z,16.40
2022-08-17T04:12:02.325Z,16.30
2022-08-17T04:14:37.840Z,16.30
2022-08-17T04:17:19.602Z,16.30
2022-08-17T04:19:46.907Z,16.30
2022-08-17T04:22:32.048Z,16.30
2022-08-17T04:25:17.808Z,16.30
2022-08-17T04:27:44.411Z,16.30
2022-08-17T04:30:11.995Z,16.40
2022-08-17T04:33:05.527Z,16.40
2022-08-17T04:35:42.109Z,16.50
2022-08-17T04:38:11.011Z,16.40
2022-08-17T04:40:56.323Z,16.40
2022-08-17T04:43:24.860Z,16.40
2022-08-17T04:45:56.696Z,16.40
2022-08-17T04:48:36.439Z,16.40
2022-08-17T04:51:20.521Z,16.50
2022-08-17T04:53:54.364Z,16.60
2022-08-17T04:56:22.501Z,16.70
2022-08-17T04:58:54.018Z,16.90
2022-08-17T05:01:23.977Z,17.10
2022-08-17T05:03:52.610Z,17.20
2022-08-17T05:06:19.245Z,17.30
2022-08-17T05:08:45.925Z,17.50
2022-08-17T05:11:12.531Z,17.60
2022-08-17T05:13:39.145Z,17.80
2022-08-17T05:16:07.023Z,18.00
2022-08-17T05:18:33.705Z,18.10
2022-08-17T05:21:00.475Z,18.10
2022-08-17T05:23:41.902Z,18.20
2022-08-17T05:26:20.416Z,18.30
2022-08-17T05:28:55.038Z,18.50
2022-08-17T05:31:24.057Z,18.50
2022-08-17T05:33:50.825Z,18.60
2022-08-17T05:36:41.611Z,18.70
2022-08-17T05:39:04.090Z,18.70
2022-08-17T05:41:30.691Z,18.90
2022-08-17T05:43:57.317Z,19.00
2022-08-17T05:46:27.961Z,19.10
2022-08-17T05:49:05.478Z,19.30
2022-08-17T05:51:48.154Z,19.40
2022-08-17T05:54:21.196Z,19.50
2022-08-17T05:57:07.720Z,19.70
2022-08-17T05:59:52.460Z,19.90
2022-08-17T06:02:45.558Z,20.20
2022-08-17T06:05:35.970Z,20.30
2022-08-17T06:08:20.507Z,20.50
2022-08-17T06:11:11.413Z,20.70
2022-08-17T06:13:56.364Z,20.70
2022-08-17T06:16:33.360Z,20.70
2022-08-17T06:19:26.920Z,20.60
2022-08-17T06:21:55.025Z,20.60
2022-08-17T06:24:51.322Z,20.60
2022-08-17T06:27:41.405Z,20.70
2022-08-17T06:30:15.669Z,20.80
2022-08-17T06:32:45.049Z,21.00
2022-08-17T06:35:15.413Z,21.30
2022-08-17T06:37:57.814Z,21.60
2022-08-17T06:40:45.442Z,21.90
2022-08-17T06:43:32.611Z,22.00
2022-08-17T06:46:21.508Z,22.10
2022-08-17T06:49:11.523Z,22.30
2022-08-17T06:51:43.216Z,22.50
2022-08-17T06:54:32.605Z,22.70
2022-08-17T06:57:14.715Z,23.00
2022-08-17T06:59:56.207Z,23.10
2022-08-17T07:02:53.231Z,23.30
2022-08-17T07:05:24.111Z,23.50
2022-08-17T07:08:03.683Z,23.80
2022-08-17T07:10:37.832Z,24.20
2022-08-17T07:13:25.313Z,24.40
2022-08-17T07:15:59.681Z,24.40
2022-08-17T07:18:29.597Z,24.50
2022-08-17T07:21:08.319Z,24.20
2022-08-17T07:24:04.302Z,24.70
2022-08-17T07:26:31.008Z,25.10
2022-08-17T07:28:59.599Z,25.60
2022-08-17T07:31:28.576Z,26.10
2022-08-17T07:34:14.442Z,26.00
2022-08-17T07:36:42.396Z,25.80
2022-08-17T07:39:10.219Z,25.70
2022-08-17T07:41:53.417Z,25.50
2022-08-17T07:44:25.712Z,25.60
2022-08-17T07:47:12.321Z,25.70
2022-08-17T07:49:41.886Z,25.70
2022-08-17T07:52:24.937Z,25.80
2022-08-17T07:54:57.157Z,26.20
2022-08-17T07:57:32.462Z,26.10
2022-08-17T08:00:02.089Z,26.40
2022-08-17T08:02:40.289Z,26.40
2022-08-17T08:05:48.833Z,26.40
2022-08-17T08:08:32.674Z,26.40
2022-08-17T08:11:08.829Z,26.20
2022-08-17T08:13:42.401Z,26.10
2022-08-17T08:16:19.815Z,25.60
2022-08-17T08:18:54.750Z,25.50
2022-08-17T08:21:46.361Z,25.50
2022-08-17T08:24:22.177Z,25.70
2022-08-17T08:27:22.968Z,25.90
2022-08-17T08:30:00.370Z,26.10
2022-08-17T08:33:07.542Z,26.40
2022-08-17T08:35:40.389Z,26.60
2022-08-17T08:38:34.812Z,26.70
2022-08-17T08:41:16.748Z,26.70
2022-08-17T08:44:05.935Z,26.70
2022-08-17T08:46:51.456Z,26.70
2022-08-17T08:50:04.109Z,26.60
2022-08-17T08:53:04.692Z,26.50
2022-08-17T08:55:53.571Z,26.40
2022-08-17T08:58:41.904Z,26.40
2022-08-17T09:01:32.603Z,26.50
2022-08-17T09:05:02.662Z,26.50
2022-08-17T09:07:32.452Z,26.30
2022-08-17T09:10:33.609Z,26.30
2022-08-17T09:13:05.945Z,26.30
2022-08-17T09:15:50.364Z,26.20
2022-08-17T09:18:59.955Z,26.00
2022-08-17T09:21:13.420Z,26.00
2022-08-17T09:23:46.337Z,26.00
2022-08-17T09:26:26.663Z,26.00
2022-08-17T09:29:01.424Z,26.00
2022-08-17T09:31:49.381Z,25.80
2022-08-17T09:34:22.134Z,25.50
2022-08-17T09:37:21.603Z,25.40
2022-08-17T09:40:21.120Z,25.10
2022-08-17T09:42:54.195Z,25.10
2022-08-17T09:45:30.253Z,25.00
2022-08-17T09:48:18.293Z,25.00
2022-08-17T09:51:16.931Z,25.00
2022-08-17T09:53:44.872Z,24.90
2022-08-17T09:56:33.162Z,24.90
2022-08-17T09:59:32.115Z,24.90
2022-08-17T10:02:20.074Z,24.90
2022-08-17T10:05:13.498Z,24.70
2022-08-17T10:07:47.864Z,24.50
2022-08-17T10:10:41.867Z,24.40
2022-08-17T10:13:35.960Z,24.30
2022-08-17T10:16:22.550Z,24.20
2022-08-17T10:19:22.628Z,24.10
2022-08-17T10:22:32.674Z,24.10
2022-08-17T10:25:22.066Z,24.10
2022-08-17T10:27:55.215Z,24.10
2022-08-17T10:30:27.364Z,24.20
2022-08-17T10:33:04.145Z,24.40
2022-08-17T10:35:36.592Z,24.50
2022-08-17T10:38:06.612Z,24.60
2022-08-17T10:40:50.293Z,24.60
2022-08-17T10:43:44.704Z,24.50
2022-08-17T10:46:46.451Z,24.50
2022-08-17T10:49:21.930Z,24.30
2022-08-17T10:51:53.484Z,23.80
2022-08-17T10:54:47.948Z,23.40
2022-08-17T10:57:26.695Z,23.00
2022-08-17T10:59:55.759Z,22.40
2022-08-17T11:02:27.419Z,22.00
2022-08-17T11:05:14.121Z,21.50
2022-08-17T11:08:15.429Z,21.10
2022-08-17T11:10:54.669Z,20.70
2022-08-17T11:13:33.590Z,20.50
2022-08-17T11:16:28.143Z,20.50
2022-08-17T11:19:17.768Z,20.40
2022-08-17T11:22:02.908Z,20.20
2022-08-17T11:24:39.830Z,20.10
2022-08-17T11:27:21.859Z,19.80
2022-08-17T11:29:59.484Z,19.90
2022-08-17T11:32:37.347Z,19.90
2022-08-17T11:35:06.923Z,19.90
2022-08-17T11:38:05.404Z,19.80
2022-08-17T11:40:59.950Z,19.90
2022-08-17T11:44:01.972Z,20.00
2022-08-17T11:46:56.421Z,20.20
2022-08-17T11:50:12.577Z,20.20
2022-08-17T11:52:47.111Z,20.10
2022-08-17T11:55:35.772Z,20.40
2022-08-17T11:58:24.923Z,20.70
2022-08-17T12:00:57.064Z,21.00
2022-08-17T12:03:36.784Z,21.10
2022-08-17T12:06:30.372Z,21.20
2022-08-17T12:09:16.210Z,21.50
2022-08-17T12:11:55.381Z,21.80
2022-08-17T12:15:07.874Z,22.00
2022-08-17T12:17:52.057Z,22.00
2022-08-17T12:20:26.155Z,22.10
2022-08-17T12:23:00.914Z,22.00
2022-08-17T12:26:11.673Z,22.20
2022-08-17T12:28:43.877Z,22.50
2022-08-17T12:31:43.115Z,23.00
2022-08-17T12:34:16.921Z,23.40
2022-08-17T12:36:43.746Z,23.70
2022-08-17T12:39:13.935Z,24.00
2022-08-17T12:41:43.813Z,24.20
2022-08-17T12:44:17.646Z,24.00
2022-08-17T12:46:55.354Z,23.90
2022-08-17T12:49:27.362Z,23.80
2022-08-17T12:52:09.806Z,23.80
2022-08-17T12:54:41.604Z,23.50
2022-08-17T12:57:16.583Z,23.30
2022-08-17T12:59:48.754Z,23.40
2022-08-17T13:02:24.259Z,23.30
2022-08-17T13:04:50.903Z,23.10
2022-08-17T13:07:36.355Z,23.10
2022-08-17T13:10:03.999Z,23.00
2022-08-17T13:12:33.603Z,23.00
2022-08-17T13:15:00.837Z,23.30
2022-08-17T13:17:34.769Z,23.80
2022-08-17T13:22:32.382Z,24.90
2022-08-17T13:25:05.246Z,25.30
2022-08-17T13:27:33.034Z,25.20
2022-08-17T13:32:36.061Z,26.40
2022-08-17T13:35:29.663Z,26.90
2022-08-17T13:38:06.471Z,27.30
2022-08-17T13:40:41.571Z,27.60
2022-08-17T13:43:09.313Z,27.40
2022-08-17T13:45:44.819Z,27.00
2022-08-17T13:48:24.852Z,27.50
2022-08-17T13:50:57.295Z,27.30
2022-08-17T13:53:37.211Z,27.80
2022-08-17T13:56:37.503Z,27.50
2022-08-17T13:59:04.813Z,28.10
2022-08-17T14:01:38.237Z,28.60
2022-08-17T14:04:27.894Z,29.00
2022-08-17T14:07:33.885Z,28.70
2022-08-17T14:10:09.787Z,27.90
2022-08-17T14:12:39.792Z,27.80
2022-08-17T14:15:07.745Z,28.00
2022-08-17T14:17:38.680Z,28.40
2022-08-17T14:20:09.226Z,28.90
2022-08-17T14:22:39.110Z,29.40
2022-08-17T14:25:08.542Z,29.40
2022-08-17T14:27:51.716Z,28.90
2022-08-17T14:30:24.483Z,29.00
2022-08-17T14:32:51.934Z,29.10
2022-08-17T14:35:22.165Z,29.20
2022-08-17T14:37:49.670Z,29.00
2022-08-17T14:40:20.649Z,29.30
2022-08-17T14:42:48.031Z,29.40
2022-08-17T14:45:31.946Z,29.40
2022-08-17T14:48:01.421Z,29.20
2022-08-17T14:50:27.995Z,28.90
2022-08-17T14:52:56.566Z,28.90
2022-08-17T14:55:24.813Z,28.50
2022-08-17T14:57:51.591Z,28.70
2022-08-17T15:00:18.505Z,28.80
2022-08-17T15:02:45.603Z,28.90
2022-08-17T15:05:15.351Z,28.90
2022-08-17T15:07:44.385Z,29.00
2022-08-17T15:10:12.954Z,28.80
2022-08-17T15:12:40.751Z,28.80
2022-08-17T15:15:11.004Z,28.50
2022-08-17T15:17:44.578Z,28.40
2022-08-17T15:20:18.251Z,28.40
2022-08-17T15:22:46.870Z,27.80
2022-08-17T15:25:14.166Z,27.70
2022-08-17T15:27:41.448Z,27.60
2022-08-17T15:30:09.766Z,27.60
2022-08-17T15:32:38.982Z,27.70
2022-08-17T15:35:08.759Z,27.50
2022-08-17T15:37:36.296Z,27.40
2022-08-17T15:40:03.790Z,27.20
2022-08-17T15:42:30.586Z,27.10
2022-08-17T15:44:57.541Z,27.20
2022-08-17T15:47:24.592Z,27.20
2022-08-17T15:49:54.430Z,27.20
2022-08-17T15:52:26.752Z,27.10
2022-08-17T15:54:56.974Z,27.10
2022-08-17T15:57:25.118Z,27.10
2022-08-17T15:59:55.079Z,27.00
2022-08-17T16:03:15.422Z,27.00
2022-08-17T16:05:21.933Z,26.80
2022-08-17T16:07:52.278Z,26.80
2022-08-17T16:10:19.635Z,26.80
2022-08-17T16:12:48.956Z,26.90
2022-08-17T16:15:17.159Z,27.00
2022-08-17T16:17:43.814Z,26.90
2022-08-17T16:20:20.626Z,26.90
2022-08-17T16:22:49.124Z,26.80
2022-08-17T16:25:22.372Z,26.80
2022-08-17T16:27:53.268Z,26.60
2022-08-17T16:30:22.709Z,26.50
2022-08-17T16:32:51.705Z,26.50
2022-08-17T16:35:21.918Z,26.50
2022-08-17T16:37:48.800Z,26.50
2022-08-17T16:40:17.302Z,26.50
2022-08-17T16:42:48.313Z,26.50
2022-08-17T17:02:49.543Z,25.40
2022-08-17T17:05:44.507Z,25.50
2022-08-17T17:08:26.425Z,25.30
2022-08-17T17:10:56.202Z,25.10
2022-08-17T17:13:34.902Z,24.90
2022-08-17T17:16:20.726Z,24.80
2022-08-17T17:18:50.545Z,24.70
2022-08-17T17:21:24.407Z,24.60
2022-08-17T17:23:59.379Z,24.60
2022-08-17T17:26:48.766Z,24.50
2022-08-17T17:29:47.339Z,24.40
2022-08-17T17:32:37.935Z,24.40
2022-08-17T17:35:14.510Z,24.30
2022-08-17T17:37:44.078Z,24.20
2022-08-17T17:40:24.114Z,24.10
2022-08-17T17:42:55.213Z,24.00
2022-08-17T17:45:26.555Z,23.80
2022-08-17T17:47:53.479Z,23.70
2022-08-17T17:50:28.887Z,23.60
2022-08-17T17:53:04.850Z,23.60
2022-08-17T17:55:47.034Z,23.50
2022-08-17T17:58:27.254Z,23.40
2022-08-17T18:01:15.795Z,23.40
2022-08-17T18:03:51.878Z,23.30
2022-08-17T18:06:36.787Z,23.20
2022-08-17T18:09:25.729Z,23.10
2022-08-17T18:12:10.804Z,23.00
2022-08-17T18:15:08.170Z,23.00
2022-08-17T18:17:36.142Z,22.70
2022-08-17T18:20:04.652Z,22.60
2022-08-17T18:22:31.836Z,22.50
2022-08-17T18:24:58.826Z,22.30
2022-08-17T18:27:33.211Z,22.20
2022-08-17T18:30:07.260Z,22.10
2022-08-17T18:32:38.339Z,22.00
2022-08-17T18:35:10.906Z,22.00
2022-08-17T18:37:49.318Z,21.90
2022-08-17T18:40:21.506Z,21.80
2022-08-17T18:43:00.550Z,21.80
2022-08-17T18:45:48.861Z,21.70
2022-08-17T18:48:48.406Z,21.70
2022-08-17T18:51:40.596Z,21.60
2022-08-17T18:54:24.083Z,21.60
2022-08-17T18:57:01.935Z,21.50
2022-08-17T18:59:44.529Z,21.40
2022-08-17T19:02:22.046Z,21.40
2022-08-17T19:05:07.179Z,21.40
2022-08-17T19:07:38.116Z,21.40
2022-08-17T19:10:16.607Z,21.40
2022-08-17T19:13:01.505Z,21.40
2022-08-17T19:15:33.921Z,21.50
2022-08-17T19:18:02.427Z,21.60
2022-08-17T19:20:41.325Z,21.70
2022-08-17T19:23:29.028Z,21.70
2022-08-17T19:25:59.132Z,21.60
2022-08-17T19:28:44.986Z,21.60
2022-08-17T19:31:22.047Z,21.50
2022-08-17T19:33:49.130Z,21.40
2022-08-17T19:36:21.794Z,21.40
2022-08-17T19:39:05.602Z,21.30
2022-08-17T19:41:52.138Z,21.20
2022-08-17T19:44:32.131Z,21.20
2022-08-17T19:47:17.232Z,21.00
2022-08-17T19:50:12.037Z,20.90
2022-08-17T19:52:48.889Z,20.90
2022-08-17T19:55:26.097Z,20.80
2022-08-17T19:58:03.383Z,20.80
2022-08-17T20:00:31.628Z,20.80
2022-08-17T20:03:16.694Z,20.70
2022-08-17T20:06:11.614Z,20.70
2022-08-17T20:08:55.249Z,20.80
2022-08-17T20:11:48.935Z,20.80
2022-08-17T20:14:20.920Z,20.70
2022-08-17T20:16:48.038Z,20.80
2022-08-17T20:19:20.376Z,20.90
2022-08-17T20:22:46.100Z,21.00
2022-08-17T20:25:30.908Z,21.00
2022-08-17T20:28:05.828Z,21.00
2022-08-17T20:30:39.333Z,20.90
2022-08-17T20:33:21.941Z,20.90
2022-08-17T20:36:14.271Z,20.80
2022-08-17T20:38:42.719Z,20.80
2022-08-17T20:41:22.357Z,20.70
2022-08-17T20:43:58.823Z,20.50
2022-08-17T20:46:34.313Z,20.60
2022-08-17T20:49:16.354Z,20.50
2022-08-17T20:52:10.090Z,20.50
2022-08-17T20:54:57.118Z,20.40
2022-08-17T20:57:32.878Z,20.30
2022-08-17T22:44:31.894Z,20.10
2022-08-17T22:46:58.821Z,20.00
2022-08-17T22:49:33.001Z,19.90
2022-08-17T22:52:03.239Z,19.80
2022-08-17T22:54:49.475Z,19.60
2022-08-17T22:57:35.913Z,19.50
2022-08-17T23:00:03.082Z,19.50
2022-08-17T23:02:36.108Z,19.60
2022-08-17T23:05:21.436Z,19.60
2022-08-17T23:07:52.665Z,19.60
2022-08-17T23:10:19.454Z,19.60
2022-08-17T23:12:46.441Z,19.70
2022-08-17T23:15:17.989Z,19.60
2022-08-17T23:17:45.477Z,19.60
2022-08-17T23:20:14.073Z,19.50
2022-08-17T23:22:51.776Z,19.50
2022-08-17T23:25:26.296Z,19.50
2022-08-17T23:27:53.279Z,19.50
2022-08-17T23:30:20.371Z,19.50
2022-08-17T23:32:53.715Z,19.50
2022-08-17T23:35:21.035Z,19.40
2022-08-17T23:38:11.409Z,19.40
2022-08-17T23:40:39.766Z,19.40
2022-08-17T23:43:23.991Z,19.40
2022-08-17T23:45:53.750Z,19.40
2022-08-17T23:48:36.270Z,19.40
2022-08-17T23:51:18.866Z,19.30
2022-08-17T23:53:48.425Z,19.30
2022-08-17T23:56:15.692Z,19.30
2022-08-17T23:58:44.668Z,19.30
